createdAt,value
2023-04-21T00:04:18.055Z,98403.16
2023-04-21T00:09:23.678Z,98390.66
2023-04-21T00:14:25.553Z,98397.75
2023-04-21T00:19:29.118Z,98386.75
2023-04-21T00:24:30.978Z,98391.22
2023-04-21T00:29:32.844Z,98400.06
2023-04-21T00:34:34.999Z,98390.69
2023-04-21T00:39:36.792Z,98393.41
2023-04-21T00:44:40.760Z,98384.31
2023-04-21T00:49:42.687Z,98382.03
2023-04-21T00:54:45.144Z,98381.34
2023-04-21T00:59:47.396Z,98382.44
2023-04-21T01:04:49.538Z,98380.97
2023-04-21T01:09:51.471Z,98379.59
2023-04-21T01:14:54.642Z,98373.63
2023-04-21T01:19:58.351Z,98365.34
2023-04-21T01:25:01.584Z,98369.03
2023-04-21T01:30:07.539Z,98362.38
2023-04-21T01:35:10.559Z,98364.44
2023-04-21T01:40:13.920Z,98353.28
2023-04-21T01:45:17.018Z,98350.69
2023-04-21T01:50:19.008Z,98356.81
2023-04-21T01:55:21.083Z,98356.81
2023-04-21T02:00:23.455Z,98350.03
2023-04-21T02:05:25.328Z,98350.03
2023-04-21T02:10:27.152Z,98350.69
2023-04-21T02:15:29.162Z,98344.72
2023-04-21T02:20:31.107Z,98344.88
2023-04-21T02:25:33.249Z,98345.97
2023-04-21T02:30:35.498Z,98339.31
2023-04-21T02:35:37.290Z,98343.78
2023-04-21T02:40:39.095Z,98341.34
2023-04-21T02:45:40.953Z,98331.44
2023-04-21T02:50:43.489Z,98336.88
2023-04-21T02:55:45.736Z,98327.78
2023-04-21T03:00:47.637Z,98340.03
2023-04-21T03:05:49.367Z,98339.47
2023-04-21T03:10:53.782Z,98340.56
2023-04-21T03:15:57.727Z,98337.31
2023-04-21T03:21:00.980Z,98335.97
2023-04-21T03:26:07.689Z,98336.91
2023-04-21T03:31:10.912Z,98333.66
2023-04-21T03:36:17.845Z,98328.50
2023-04-21T03:41:20.838Z,98336.25
2023-04-21T03:46:23.524Z,98327.69
2023-04-21T03:51:25.374Z,98336.25
2023-04-21T03:56:27.170Z,98337.06
2023-04-21T04:01:29.041Z,98344.66
2023-04-21T04:06:30.744Z,98337.88
2023-04-21T04:11:32.671Z,98342.06
2023-04-21T04:16:36.053Z,98345.47
2023-04-21T04:21:38.803Z,98350.50
2023-04-21T04:26:40.654Z,98349.41
2023-04-21T04:31:42.634Z,98348.31
2023-04-21T04:36:45.645Z,98357.41
2023-04-21T04:41:47.460Z,98363.78
2023-04-21T04:46:49.757Z,98359.97
2023-04-21T04:51:51.836Z,98359.28
2023-04-21T04:56:53.882Z,98356.16
2023-04-21T05:01:55.826Z,98357.88
2023-04-21T05:06:57.749Z,98353.50
2023-04-21T05:11:59.695Z,98361.09
2023-04-21T05:17:08.307Z,98363.22
2023-04-21T05:22:10.118Z,98365.34
2023-04-21T05:27:12.009Z,98359.03
2023-04-21T05:32:14.450Z,98369.00
2023-04-21T05:37:16.565Z,98365.13
2023-04-21T05:42:18.454Z,98371.84
2023-04-21T05:47:20.318Z,98371.03
2023-04-21T05:52:22.164Z,98359.88
2023-04-21T05:57:27.262Z,98351.59
2023-04-21T06:02:29.231Z,98356.53
2023-04-21T06:07:31.429Z,98361.47
2023-04-21T06:12:36.220Z,98354.25
2023-04-21T06:17:38.111Z,98354.81
2023-04-21T06:22:40.242Z,98354.41
2023-04-21T06:27:42.033Z,98352.88
2023-04-21T06:32:46.341Z,98346.13
2023-04-21T06:37:48.112Z,98350.25
2023-04-21T06:42:49.995Z,98347.28
2023-04-21T06:47:53.105Z,98340.00
2023-04-21T06:52:55.017Z,98343.28
2023-04-21T06:57:57.020Z,98345.06
2023-04-21T07:02:58.975Z,98333.88
2023-04-21T07:08:00.945Z,98343.28
2023-04-21T07:13:02.930Z,98341.31
2023-04-21T07:18:04.925Z,98338.69
2023-04-21T07:23:07.987Z,98335.41
2023-04-21T07:28:11.444Z,98333.72
2023-04-21T07:33:14.244Z,98330.28
2023-04-21T07:38:16.446Z,98333.44
2023-04-21T07:43:19.976Z,98323.44
2023-04-21T07:48:21.958Z,98320.38
2023-04-21T07:53:24.291Z,98316.03
2023-04-21T07:58:26.338Z,98317.72
2023-04-21T08:03:29.668Z,98314.00
2023-04-21T08:08:32.159Z,98304.88
2023-04-21T08:13:34.326Z,98309.16
2023-04-21T08:18:36.761Z,98310.94
2023-04-21T08:23:38.827Z,98309.34
2023-04-21T08:28:40.810Z,98299.16
2023-04-21T08:33:53.923Z,98300.38
2023-04-21T08:39:02.876Z,98299.56
2023-04-21T08:44:06.182Z,98298.34
2023-04-21T08:49:10.932Z,98295.69
2023-04-21T08:54:13.491Z,98289.00
2023-04-21T08:59:15.724Z,98294.94
2023-04-21T09:04:19.188Z,98291.69
2023-04-21T09:09:21.643Z,98291.59
2023-04-21T09:14:31.946Z,98286.47
2023-04-21T09:19:34.958Z,98284.56
2023-04-21T09:24:36.955Z,98268.34
2023-04-21T09:29:39.444Z,98268.44
2023-04-21T09:34:43.642Z,98279.72
2023-04-21T09:40:03.351Z,98272.56
2023-04-21T09:45:29.122Z,98268.56
2023-04-21T09:51:11.338Z,98262.16
2023-04-21T09:56:02.641Z,98266.63
2023-04-21T10:01:04.998Z,98262.00
2023-04-21T10:06:07.716Z,98253.78
2023-04-21T10:11:12.430Z,98252.56
2023-04-21T10:16:17.677Z,98251.16
2023-04-21T10:21:22.269Z,98238.06
2023-04-21T10:26:28.169Z,98235.69
2023-04-21T10:31:35.886Z,98231.25
2023-04-21T10:36:48.427Z,98232.84
2023-04-21T10:41:51.436Z,98226.78
2023-04-21T10:46:54.626Z,98232.84
2023-04-21T10:52:05.522Z,98226.78
2023-04-21T10:57:12.361Z,98213.44
2023-04-21T11:02:16.735Z,98213.03
2023-04-21T11:07:23.912Z,98203.75
2023-04-21T11:12:36.897Z,98215.81
2023-04-21T11:23:28.489Z,98211.34
2023-04-21T11:28:44.383Z,98200.97
2023-04-21T11:33:46.456Z,98206.78
2023-04-21T11:38:51.451Z,98208.16
2023-04-21T11:43:53.425Z,98200.44
2023-04-21T11:48:59.662Z,98196.41
2023-04-21T11:54:02.316Z,98203.66
2023-04-21T11:59:09.462Z,98196.41
2023-04-21T12:04:30.817Z,98190.31
2023-04-21T12:09:36.465Z,98186.28
2023-04-21T12:14:38.274Z,98185.44
2023-04-21T12:19:42.962Z,98181.38
2023-04-21T12:24:45.545Z,98183.41
2023-04-21T12:29:47.436Z,98179.88
2023-04-21T12:34:49.299Z,98174.84
2023-04-21T12:39:57.543Z,98172.34
2023-04-21T12:44:59.435Z,98172.09
2023-04-21T12:50:01.406Z,98168.50
2023-04-21T12:55:03.264Z,98164.88
2023-04-21T13:00:06.028Z,98177.63
2023-04-21T13:05:10.387Z,98162.94
2023-04-21T13:10:12.375Z,98159.16
2023-04-21T13:15:14.154Z,98155.47
2023-04-21T13:20:20.455Z,98152.44
2023-04-21T13:25:22.225Z,98154.53
2023-04-21T13:30:24.293Z,98138.41
2023-04-21T13:35:26.542Z,98132.28
2023-04-21T13:40:28.876Z,98123.00
2023-04-21T13:45:31.725Z,98118.78
2023-04-21T13:50:33.599Z,98107.25
2023-04-21T13:55:36.040Z,98114.84
2023-04-21T14:00:39.034Z,98102.69
2023-04-21T14:05:41.224Z,98101.88
2023-04-21T14:10:43.767Z,98090.59
2023-04-21T14:15:45.673Z,98084.06
2023-04-21T14:20:47.554Z,98077.53
2023-04-21T14:25:49.477Z,98078.88
2023-04-21T14:30:51.323Z,98088.44
2023-04-21T14:35:53.240Z,98086.69
2023-04-21T14:40:55.299Z,98079.69
2023-04-21T14:45:57.392Z,98074.06
2023-04-21T14:50:59.762Z,98064.31
2023-04-21T14:56:01.793Z,98054.94
2023-04-21T15:01:03.875Z,98055.84
2023-04-21T15:06:06.676Z,98054.81
2023-04-21T15:11:08.639Z,98047.84
2023-04-21T15:16:10.749Z,98051.63
2023-04-21T15:21:12.647Z,98051.50
2023-04-21T15:26:14.582Z,98043.28
2023-04-21T15:31:16.584Z,98043.66
2023-04-21T15:36:18.786Z,98040.78
2023-04-21T15:41:20.845Z,98035.81
2023-04-21T15:46:23.073Z,98030.47
2023-04-21T15:51:25.077Z,98020.72
2023-04-21T15:56:27.013Z,98020.19
2023-04-21T16:01:28.852Z,98010.78
2023-04-21T16:06:31.886Z,98018.25
2023-04-21T16:11:34.513Z,98012.25
2023-04-21T16:16:39.478Z,98009.63
2023-04-21T16:21:43.107Z,97998.75
2023-04-21T16:26:45.047Z,98002.72
2023-04-21T16:31:47.514Z,98001.78
2023-04-21T16:36:49.681Z,98002.34
2023-04-21T16:41:51.527Z,98005.78
2023-04-21T16:46:53.658Z,97998.44
2023-04-21T16:51:57.349Z,97994.69
2023-04-21T16:56:59.165Z,97998.56
2023-04-21T17:02:01.087Z,97997.13
2023-04-21T17:07:03.143Z,97996.50
2023-04-21T17:12:05.118Z,97998.63
2023-04-21T17:17:08.220Z,97999.88
2023-04-21T17:22:10.287Z,97986.00
2023-04-21T17:27:12.412Z,98001.97
2023-04-21T17:32:14.600Z,97997.34
2023-04-21T17:37:16.939Z,97995.38
2023-04-21T17:42:18.793Z,97997.81
2023-04-21T17:47:20.766Z,97997.41
2023-04-21T17:52:23.954Z,98001.84
2023-04-21T17:57:26.291Z,97988.38
2023-04-21T18:02:28.140Z,98008.69
2023-04-21T18:07:31.014Z,97999.22
2023-04-21T18:12:32.859Z,98003.25
2023-04-21T18:17:36.052Z,98010.06
2023-04-21T18:22:38.355Z,98020.53
2023-04-21T18:27:40.745Z,98014.06
2023-04-21T18:32:42.646Z,98011.25
2023-04-21T18:37:44.808Z,98012.25
2023-04-21T18:42:46.889Z,98021.06
2023-04-21T18:47:48.764Z,98025.28
2023-04-21T18:52:52.512Z,98026.84
2023-04-21T18:57:54.625Z,98026.63
2023-04-21T19:02:57.298Z,98023.19
2023-04-21T19:07:59.243Z,98027.97
2023-04-21T19:13:12.524Z,98031.38
2023-04-21T19:18:14.436Z,98028.53
2023-04-21T19:23:16.373Z,98040.75
2023-04-21T19:28:18.243Z,98024.63
2023-04-21T19:33:20.511Z,98028.16
2023-04-21T19:38:22.412Z,98030.13
2023-04-21T19:43:24.298Z,98034.50
2023-04-21T19:48:26.694Z,98031.22
2023-04-21T19:53:28.694Z,98024.97
2023-04-21T19:58:40.324Z,98030.13
2023-04-21T20:03:43.105Z,98023.25
2023-04-21T20:08:45.589Z,98027.63
2023-04-21T20:13:47.774Z,98031.34
2023-04-21T20:18:49.579Z,98033.47
2023-04-21T20:23:51.386Z,98039.81
2023-04-21T20:28:53.201Z,98034.09
2023-04-21T20:33:56.468Z,98039.06
2023-04-21T20:38:59.993Z,98039.00
2023-04-21T20:44:01.941Z,98038.94
2023-04-21T20:49:03.827Z,98048.47
2023-04-21T20:54:05.660Z,98050.03
2023-04-21T20:59:07.402Z,98051.53
2023-04-21T21:04:09.693Z,98051.66
2023-04-21T21:09:12.159Z,98049.41
2023-04-21T21:14:14.085Z,98061.97
2023-04-21T21:19:16.005Z,98062.16
2023-04-21T21:24:17.841Z,98053.72
2023-04-21T21:29:19.720Z,98058.50
2023-04-21T21:34:21.777Z,98059.84
2023-04-21T21:39:24.111Z,98069.19
2023-04-21T21:44:28.039Z,98068.94
2023-04-21T21:49:29.874Z,98080.25
2023-04-21T21:54:31.952Z,98074.13
2023-04-21T21:59:33.934Z,98071.25
2023-04-21T22:04:37.926Z,98076.03
2023-04-21T22:09:40.784Z,98085.97
2023-04-21T22:14:42.966Z,98083.91
2023-04-21T22:19:45.647Z,98083.28
2023-04-21T22:24:47.559Z,98082.84
2023-04-21T22:29:49.359Z,98084.97
2023-04-21T22:34:51.237Z,98090.19
2023-04-21T22:39:54.426Z,98090.81
2023-04-21T22:44:56.890Z,98092.25
2023-04-21T22:49:58.784Z,98093.88
2023-04-21T22:55:00.785Z,98089.47
2023-04-21T23:00:02.653Z,98092.72
2023-04-21T23:05:04.803Z,98088.50
2023-04-21T23:10:07.108Z,98093.88
2023-04-21T23:15:09.236Z,98089.84
2023-04-21T23:20:11.760Z,98096.38
2023-04-21T23:25:13.617Z,98098.53
2023-04-21T23:30:15.747Z,98095.00
2023-04-21T23:35:17.776Z,98093.28
2023-04-21T23:40:21.872Z,98094.53
2023-04-21T23:45:24.932Z,98084.38
2023-04-21T23:50:26.988Z,98085.06
2023-04-21T23:55:28.945Z,98082.53
